Time;durP1;ratioP1;P1;durP2;ratioP2;P2;SDS_P1;SDS_P2;PMS_P1;PMS_P2;Temp;Humidity;BMP_temperature;BMP_pressure;BME280_temperature;BME280_humidity;BME280_pressure;Samples;Min_cycle;Max_cycle;Signal;HPM_P1;HPM_P2
2023/02/03 00:02:57;;;;;;;8.27;2.47;;;;;;;6.58;66.52;100919.09;10423506;28;20041;-66
2023/02/03 00:07:59;;;;;;;7.50;2.55;;;;;;;6.55;66.61;100927.81;10417397;28;20045;-66
2023/02/03 00:13:01;;;;;;;8.02;2.70;;;;;;;6.61;66.54;100921.63;10415254;28;20041;-66
2023/02/03 00:18:03;;;;;;;5.30;2.38;;;;;;;6.59;66.72;100926.88;10419344;28;20053;-66
2023/02/03 00:23:07;;;;;;;7.03;2.70;;;;;;;6.70;66.64;100921.34;10420960;28;20075;-66
2023/02/03 00:28:09;;;;;;;4.03;2.10;;;;;;;6.71;66.81;100912.66;10417073;28;20056;-66
2023/02/03 00:33:10;;;;;;;8.02;2.25;;;;;;;6.81;66.67;100922.75;10417769;28;20065;-66
2023/02/03 00:38:12;;;;;;;7.32;2.40;;;;;;;6.94;66.38;100918.91;10417965;28;20566;-66
2023/02/03 00:43:14;;;;;;;6.25;2.78;;;;;;;7.00;66.18;100874.50;10416864;28;20045;-66
2023/02/03 00:48:15;;;;;;;6.63;2.50;;;;;;;6.96;66.21;100844.28;10417823;28;20053;-66
2023/02/03 00:53:17;;;;;;;7.47;2.50;;;;;;;7.00;66.29;100858.03;10414011;28;20049;-66
2023/02/03 00:58:19;;;;;;;7.32;2.88;;;;;;;6.98;66.54;100862.44;10414436;28;20143;-66
2023/02/03 01:03:20;;;;;;;6.07;2.53;;;;;;;7.02;66.51;100848.47;10420020;28;20060;-66
2023/02/03 01:08:22;;;;;;;4.35;2.13;;;;;;;7.01;66.56;100832.00;10412599;28;20053;-66
2023/02/03 01:13:24;;;;;;;7.88;2.50;;;;;;;7.00;66.63;100832.88;10419860;28;20212;-66
2023/02/03 01:18:25;;;;;;;7.32;2.70;;;;;;;7.14;66.42;100845.50;10416783;28;20033;-66
2023/02/03 01:23:27;;;;;;;7.00;2.47;;;;;;;6.91;67.11;100840.13;10417656;28;20497;-66
2023/02/03 01:28:28;;;;;;;5.15;2.65;;;;;;;6.95;66.95;100844.34;10413500;28;20049;-66
2023/02/03 01:33:30;;;;;;;6.47;2.58;;;;;;;6.97;66.95;100840.81;10416079;28;20051;-65
2023/02/03 01:38:32;;;;;;;6.05;2.40;;;;;;;7.03;67.13;100831.94;10411609;28;20051;-66
2023/02/03 01:43:39;;;;;;;5.85;2.38;;;;;;;7.06;67.18;100839.69;10413305;28;20052;-66
2023/02/03 01:48:41;;;;;;;6.60;2.60;;;;;;;7.01;67.16;100834.59;10413114;28;20541;-66
2023/02/03 01:53:43;;;;;;;7.15;2.63;;;;;;;7.10;67.01;100820.47;10414744;28;20456;-66
2023/02/03 01:58:47;;;;;;;6.50;2.40;;;;;;;7.03;67.03;100822.41;10412332;28;20045;-66
2023/02/03 02:03:56;;;;;;;7.28;2.42;;;;;;;7.09;66.84;100839.56;10414936;28;20041;-66
2023/02/03 02:08:59;;;;;;;7.13;2.30;;;;;;;7.18;66.40;100857.50;10415963;28;20037;-66
2023/02/03 02:14:02;;;;;;;6.53;2.47;;;;;;;7.12;66.54;100858.53;10414432;28;20049;-65
2023/02/03 02:19:24;;;;;;;7.78;2.22;;;;;;;7.08;66.51;100854.31;10411848;28;20041;-66
2023/02/03 02:24:50;;;;;;;6.38;2.28;;;;;;;7.11;66.23;100853.38;10414417;28;20417;-66
2023/02/03 02:29:55;;;;;;;7.03;2.00;;;;;;;7.18;65.90;100860.09;10410978;28;20481;-66
2023/02/03 02:35:15;;;;;;;7.30;2.25;;;;;;;7.09;66.57;100858.63;10423454;28;20049;-66
2023/02/03 02:40:53;;;;;;;5.22;2.38;;;;;;;7.01;66.19;100871.03;10421276;28;20411;-66
2023/02/03 02:46:29;;;;;;;4.82;2.05;;;;;;;7.13;65.98;100862.84;10419671;28;20056;-65
2023/02/03 02:51:32;;;;;;;5.85;2.00;;;;;;;7.22;65.90;100853.03;10403748;28;20545;-66
2023/02/03 02:56:37;;;;;;;5.22;1.90;;;;;;;7.25;65.85;100826.91;10422111;28;20064;-66
2023/02/03 03:01:40;;;;;;;4.63;1.92;;;;;;;7.21;65.87;100831.38;10420595;28;20447;-66
2023/02/03 03:06:46;;;;;;;4.38;2.00;;;;;;;7.21;65.74;100826.16;10430120;28;20051;-66
2023/02/03 03:12:00;;;;;;;4.20;1.60;;;;;;;7.12;65.30;100819.50;10427695;28;20045;-66
2023/02/03 03:17:04;;;;;;;4.47;1.65;;;;;;;7.32;65.37;100803.28;10429792;28;20071;-66
2023/02/03 03:22:10;;;;;;;5.85;1.77;;;;;;;7.27;65.24;100779.13;10426553;28;20041;-66
2023/02/03 03:27:22;;;;;;;4.20;1.58;;;;;;;7.32;64.56;100779.00;10426898;28;20052;-65
2023/02/03 03:32:26;;;;;;;4.93;1.60;;;;;;;7.38;64.42;100794.41;10425881;28;20132;-66
2023/02/03 03:37:42;;;;;;;4.72;1.73;;;;;;;7.52;63.64;100815.63;10428473;28;20512;-66
2023/02/03 03:42:50;;;;;;;4.50;1.70;;;;;;;7.43;63.87;100814.16;10429487;28;20057;-66
2023/02/03 03:48:16;;;;;;;3.90;1.60;;;;;;;7.41;63.83;100815.97;10428427;28;20052;-66
2023/02/03 03:53:19;;;;;;;4.03;1.40;;;;;;;7.41;64.41;100802.94;10421257;28;20144;-66
2023/02/03 03:58:28;;;;;;;5.20;1.65;;;;;;;7.38;64.99;100802.22;10425209;28;20063;-66
2023/02/03 04:03:40;;;;;;;4.95;1.80;;;;;;;7.29;65.96;100829.38;10417110;28;20053;-66
2023/02/03 04:08:42;;;;;;;4.20;1.70;;;;;;;7.22;66.05;100840.03;10419222;28;20049;-66
2023/02/03 04:13:43;;;;;;;4.80;1.88;;;;;;;7.16;66.28;100822.88;10416701;28;20056;-66
2023/02/03 04:18:45;;;;;;;4.80;1.70;;;;;;;7.21;66.33;100805.34;10418360;28;20111;-66
2023/02/03 04:23:47;;;;;;;3.78;1.70;;;;;;;7.20;66.36;100798.47;10420102;28;20446;-66
2023/02/03 04:28:48;;;;;;;4.00;1.90;;;;;;;7.17;66.42;100824.56;10421510;28;20052;-66
2023/02/03 04:33:50;;;;;;;4.32;1.70;;;;;;;7.22;66.49;100820.09;10411286;28;20052;-66
2023/02/03 04:38:52;;;;;;;5.38;1.90;;;;;;;7.12;66.68;100821.28;10414096;28;20069;-65
2023/02/03 04:43:53;;;;;;;5.60;1.95;;;;;;;7.21;66.39;100815.75;10415826;28;20048;-66
2023/02/03 04:48:55;;;;;;;4.60;1.77;;;;;;;7.20;66.29;100790.66;10420481;28;20053;-66
2023/02/03 04:53:56;;;;;;;4.60;1.60;;;;;;;7.19;66.40;100787.19;10413416;28;20053;-66
2023/02/03 04:58:58;;;;;;;3.63;1.80;;;;;;;7.25;66.07;100806.09;10416591;28;20056;-66
2023/02/03 05:03:59;;;;;;;3.67;1.70;;;;;;;7.27;66.03;100805.16;10413438;28;20135;-66
2023/02/03 05:09:01;;;;;;;4.22;1.60;;;;;;;7.25;65.96;100793.94;10413183;28;20497;-65
2023/02/03 05:14:03;;;;;;;4.15;1.40;;;;;;;7.17;65.74;100783.81;10421911;28;20060;-66
2023/02/03 05:19:05;;;;;;;6.00;1.50;;;;;;;7.18;65.70;100774.25;10414306;28;20049;-66
2023/02/03 05:24:06;;;;;;;5.75;1.55;;;;;;;7.20;65.37;100749.03;10415401;28;20049;-66
2023/02/03 05:29:10;;;;;;;6.10;1.60;;;;;;;7.23;64.96;100774.94;10419439;28;20052;-66
2023/02/03 05:34:12;;;;;;;3.25;1.40;;;;;;;7.40;64.56;100770.03;10416405;28;20083;-66
2023/02/03 05:39:13;;;;;;;3.90;1.48;;;;;;;7.25;64.33;100770.53;10406032;28;20049;-66
2023/02/03 05:44:15;;;;;;;4.10;1.60;;;;;;;7.35;63.92;100771.94;10417453;28;20076;-66
2023/02/03 05:49:18;;;;;;;8.88;3.80;;;;;;;7.46;63.58;100782.84;10416317;28;20048;-66
2023/02/03 05:54:20;;;;;;;4.53;1.52;;;;;;;7.34;63.66;100765.03;10414005;28;20982;-66
2023/02/03 05:59:22;;;;;;;10.35;6.43;;;;;;;7.44;63.34;100776.00;10414772;28;20049;-66
2023/02/03 06:04:23;;;;;;;4.10;1.50;;;;;;;7.41;63.53;100776.94;10415402;28;20059;-66
2023/02/03 06:09:25;;;;;;;5.10;1.50;;;;;;;7.42;63.17;100765.63;10408161;28;20045;-66
2023/02/03 06:14:27;;;;;;;5.35;1.70;;;;;;;7.49;63.11;100761.91;10415878;28;20051;-66
2023/02/03 06:19:28;;;;;;;3.72;1.67;;;;;;;7.49;63.09;100769.72;10416560;28;20461;-66
2023/02/03 06:24:30;;;;;;;5.93;1.80;;;;;;;7.45;63.00;100756.88;10409685;28;20060;-66
2023/02/03 06:29:31;;;;;;;3.45;1.50;;;;;;;7.49;62.95;100759.31;10415707;28;20045;-66
2023/02/03 06:34:33;;;;;;;4.38;1.67;;;;;;;7.40;62.92;100759.63;10413639;28;20054;-66
2023/02/03 06:39:35;;;;;;;5.63;1.98;;;;;;;7.47;62.73;100774.13;10411496;28;20642;-66
2023/02/03 06:44:36;;;;;;;7.40;1.80;;;;;;;7.49;62.45;100774.91;10413460;28;20053;-66
2023/02/03 06:49:38;;;;;;;4.18;1.40;;;;;;;7.44;62.00;100784.66;10410184;28;20048;-66
2023/02/03 06:54:40;;;;;;;2.70;1.40;;;;;;;7.55;61.95;100779.09;10411970;28;20041;-66
2023/02/03 06:59:42;;;;;;;3.42;1.20;;;;;;;7.51;61.65;100787.91;10414242;28;20049;-66
2023/02/03 07:04:44;;;;;;;3.10;1.40;;;;;;;7.48;61.90;100761.97;10408177;28;20497;-66
2023/02/03 07:09:45;;;;;;;4.53;1.40;;;;;;;7.56;61.73;100783.38;10414226;28;20049;-66
2023/02/03 07:14:47;;;;;;;6.68;1.45;;;;;;;7.48;62.02;100765.44;10413865;28;20048;-66
2023/02/03 07:19:48;;;;;;;4.30;1.50;;;;;;;7.56;61.71;100762.56;10412279;28;20045;-66
2023/02/03 07:24:50;;;;;;;2.50;1.35;;;;;;;7.59;61.28;100749.44;10419230;28;20409;-66
2023/02/03 07:29:52;;;;;;;3.58;1.45;;;;;;;7.66;61.12;100772.59;10418872;28;20051;-66
2023/02/03 07:34:53;;;;;;;4.65;1.48;;;;;;;7.71;60.90;100768.06;10419387;28;20132;-67
2023/02/03 07:39:55;;;;;;;3.88;1.40;;;;;;;7.64;60.63;100774.41;10420016;28;20447;-66
2023/02/03 07:44:58;;;;;;;5.13;1.30;;;;;;;7.83;60.23;100796.28;10418320;28;20540;-66
2023/02/03 07:50:00;;;;;;;5.63;1.90;;;;;;;7.72;59.82;100803.63;10421380;28;20045;-66
2023/02/03 07:55:02;;;;;;;4.03;1.40;;;;;;;7.84;59.82;100807.56;10423762;28;20060;-66
2023/02/03 08:00:04;;;;;;;5.55;1.40;;;;;;;7.75;59.50;100798.31;10422161;28;20072;-65
2023/02/03 08:05:06;;;;;;;5.13;1.50;;;;;;;7.98;59.41;100782.75;10422385;28;20405;-66
2023/02/03 08:10:10;;;;;;;7.07;1.50;;;;;;;7.90;59.42;100782.16;10423092;28;20041;-66
2023/02/03 08:15:13;;;;;;;5.03;1.48;;;;;;;7.87;59.72;100786.63;10426475;28;20063;-65
2023/02/03 08:20:15;;;;;;;4.28;1.30;;;;;;;8.01;59.35;100787.84;10423436;28;20079;-66
2023/02/03 08:25:17;;;;;;;3.55;1.30;;;;;;;8.00;59.39;100788.75;10430200;28;20048;-66
2023/02/03 08:30:22;;;;;;;5.15;1.58;;;;;;;8.04;59.11;100787.72;10429798;28;20476;-66
2023/02/03 08:35:24;;;;;;;4.53;1.40;;;;;;;7.98;59.04;100784.47;10430455;28;20919;-66
2023/02/03 08:40:25;;;;;;;5.70;1.50;;;;;;;8.09;58.97;100773.69;10430089;28;20469;-66
2023/02/03 08:45:28;;;;;;;5.10;1.60;;;;;;;8.13;59.00;100770.09;10426526;28;20048;-66
2023/02/03 08:50:29;;;;;;;4.25;1.30;;;;;;;8.16;58.76;100768.22;10426466;28;20425;-66
2023/02/03 08:55:32;;;;;;;5.35;1.60;;;;;;;8.23;58.54;100768.84;10427170;28;20118;-66
2023/02/03 09:00:33;;;;;;;4.25;1.48;;;;;;;8.30;58.45;100755.56;10425952;28;20068;-66
2023/02/03 09:05:35;;;;;;;3.75;1.40;;;;;;;8.18;58.38;100757.75;10427452;28;20051;-65
2023/02/03 09:10:37;;;;;;;3.30;1.30;;;;;;;8.32;58.30;100773.75;10426372;28;20869;-66
2023/02/03 09:15:38;;;;;;;3.45;1.20;;;;;;;8.29;57.88;100771.22;10427117;28;20056;-66
2023/02/03 09:20:40;;;;;;;5.50;1.85;;;;;;;8.46;57.82;100761.91;10427036;28;20414;-66
2023/02/03 09:25:42;;;;;;;4.82;1.40;;;;;;;8.57;57.44;100767.53;10426580;28;20143;-66
2023/02/03 09:30:48;;;;;;;6.40;1.90;;;;;;;8.71;57.11;100765.25;10426458;28;20048;-66
2023/02/03 09:35:54;;;;;;;3.67;1.27;;;;;;;8.79;56.13;100770.19;10420367;28;20172;-66
2023/02/03 09:41:01;;;;;;;4.05;1.40;;;;;;;8.77;56.49;100769.38;10426630;28;20768;-66
2023/02/03 09:46:42;;;;;;;5.22;1.60;;;;;;;9.05;56.55;100775.22;10424194;28;20516;-66
2023/02/03 09:52:13;;;;;;;;;;;;;;;8.57;57.31;100769.28;10422025;28;20836;-66
2023/02/03 09:57:30;;;;;;;7.78;1.67;;;;;;;8.82;57.12;100764.81;10419115;28;19925;-66
2023/02/03 10:02:51;;;;;;;4.10;1.50;;;;;;;8.91;57.18;100754.03;10425310;28;20374;-64
2023/02/03 10:07:56;;;;;;;4.55;1.60;;;;;;;8.98;57.73;100768.53;10413216;28;20300;-64
2023/02/03 10:13:25;;;;;;;7.22;1.70;;;;;;;8.91;58.17;100769.69;10417945;28;20075;-64
2023/02/03 10:18:44;;;;;;;4.88;1.73;;;;;;;8.96;58.38;100766.88;10423468;28;20057;-64
2023/02/03 10:23:47;;;;;;;5.72;1.60;;;;;;;8.94;58.91;100769.56;10415435;28;20052;-64
2023/02/03 10:28:56;;;;;;;8.98;1.67;;;;;;;8.83;59.36;100776.97;10421154;28;20493;-64
2023/02/03 10:34:03;;;;;;;5.95;1.80;;;;;;;8.70;60.29;100797.47;10414068;28;20048;-64
2023/02/03 10:39:29;;;;;;;4.70;1.60;;;;;;;8.63;60.81;100793.38;10422662;28;20056;-64
2023/02/03 10:44:46;;;;;;;7.50;1.73;;;;;;;8.62;61.37;100798.66;10420507;28;20505;-64
2023/02/03 10:49:53;;;;;;;8.25;1.80;;;;;;;8.57;62.23;100803.19;10406426;28;20658;-64
2023/02/03 10:54:55;;;;;;;6.32;1.92;;;;;;;8.37;63.73;100813.50;10420474;28;20049;-64
2023/02/03 11:00:20;;;;;;;5.40;1.70;;;;;;;8.41;63.93;100792.47;10427009;28;20044;-64
2023/02/03 11:05:26;;;;;;;7.15;2.30;;;;;;;8.18;65.13;100770.78;10426254;28;20049;-64
2023/02/03 11:10:34;;;;;;;8.60;2.20;;;;;;;8.27;65.25;100778.25;10414468;28;20509;-63
2023/02/03 11:15:36;;;;;;;3.22;1.67;;;;;;;8.16;66.04;100749.97;10417396;28;20148;-64
2023/02/03 11:20:39;;;;;;;6.47;1.83;;;;;;;8.25;65.84;100746.19;10420934;28;20084;-64
2023/02/03 11:25:40;;;;;;;5.13;1.70;;;;;;;8.22;66.41;100738.50;10422174;28;20343;-64
2023/02/03 11:30:43;;;;;;;5.32;2.00;;;;;;;8.33;66.15;100744.16;10424383;28;20041;-64
2023/02/03 11:35:58;;;;;;;6.45;1.73;;;;;;;8.27;66.67;100754.81;10423628;28;20067;-64
2023/02/03 11:41:02;;;;;;;5.18;1.70;;;;;;;8.18;66.95;100755.97;10424822;28;20048;-63
2023/02/03 11:46:08;;;;;;;6.80;1.70;;;;;;;8.25;66.71;100762.69;10420729;28;20158;-64
2023/02/03 11:51:42;;;;;;;3.75;1.40;;;;;;;8.01;68.05;100747.91;10414215;28;20056;-64
2023/02/03 11:57:04;;;;;;;4.78;1.70;;;;;;;8.02;68.20;100753.06;10416010;28;20405;-64
2023/02/03 12:02:20;;;;;;;4.53;1.77;;;;;;;7.99;68.16;100745.38;10412783;28;20049;-64
2023/02/03 12:07:40;;;;;;;8.55;3.00;;;;;;;7.92;68.76;100733.47;10422513;28;20513;-64
2023/02/03 12:12:48;;;;;;;4.85;1.80;;;;;;;7.86;68.94;100719.81;10420130;28;20045;-64
2023/02/03 12:18:07;;;;;;;3.15;1.73;;;;;;;8.01;68.53;100730.53;10422247;28;20049;-64
2023/02/03 12:23:29;;;;;;;3.80;1.48;;;;;;;8.01;68.19;100720.13;10427791;28;20063;-64
2023/02/03 12:28:45;;;;;;;5.90;1.92;;;;;;;8.24;67.46;100713.25;10425547;28;20148;-64
2023/02/03 12:33:55;;;;;;;5.18;1.50;;;;;;;8.25;67.38;100725.34;10426007;28;20045;-64
2023/02/03 12:39:10;;;;;;;5.00;1.50;;;;;;;8.23;67.35;100732.38;10426781;28;20049;-64
2023/02/03 12:44:29;;;;;;;2.17;1.40;;;;;;;8.31;66.86;100719.91;10415734;28;20059;-64
2023/02/03 12:49:42;;;;;;;4.05;1.48;;;;;;;8.27;66.94;100715.72;10428804;28;20045;-65
2023/02/03 12:54:55;;;;;;;2.70;1.30;;;;;;;8.33;66.71;100712.88;10427979;28;20493;-64
2023/02/03 13:00:18;;;;;;;4.38;1.50;;;;;;;8.40;66.41;100720.41;10426848;28;20052;-64
2023/02/03 13:05:23;;;;;;;20.98;10.45;;;;;;;8.39;66.81;100712.63;10426899;28;20063;-64
2023/02/03 13:10:37;;;;;;;7.38;3.92;;;;;;;8.47;66.76;100705.38;10427726;28;20530;-64
2023/02/03 13:15:48;;;;;;;6.70;4.60;;;;;;;8.57;66.53;100698.88;10426197;28;20056;-64
2023/02/03 13:20:50;;;;;;;5.65;3.50;;;;;;;8.57;66.80;100710.16;10423752;28;20052;-64
2023/02/03 13:25:55;;;;;;;4.68;2.00;;;;;;;8.68;66.71;100720.19;10425717;28;20049;-64
2023/02/03 13:31:25;;;;;;;5.03;3.00;;;;;;;8.56;67.06;100725.88;10426255;28;20700;-64
2023/02/03 13:36:54;;;;;;;4.10;2.20;;;;;;;8.56;67.36;100733.69;10425661;28;20049;-64
2023/02/03 13:42:15;;;;;;;4.40;2.20;;;;;;;8.61;67.27;100722.19;10423008;28;20548;-64
2023/02/03 13:47:23;;;;;;;6.35;2.90;;;;;;;8.67;67.45;100719.31;10425028;28;20057;-64
2023/02/03 13:52:31;;;;;;;5.90;2.72;;;;;;;8.61;67.63;100713.50;10425806;28;20059;-64
2023/02/03 13:57:37;;;;;;;4.95;2.75;;;;;;;8.70;67.37;100702.72;10426118;28;20057;-64
2023/02/03 14:02:50;;;;;;;5.22;2.90;;;;;;;8.80;67.12;100710.13;10420230;28;20053;-64
2023/02/03 14:07:52;;;;;;;7.68;2.97;;;;;;;8.92;66.58;100707.91;10424201;28;20155;-64
2023/02/03 14:12:57;;;;;;;5.65;3.22;;;;;;;8.88;66.40;100728.06;10423418;28;20144;-64
2023/02/03 14:18:06;;;;;;;6.07;3.35;;;;;;;8.90;66.05;100735.81;10423380;28;20052;-64
2023/02/03 14:23:25;;;;;;;6.70;4.10;;;;;;;8.83;65.97;100756.09;10423759;28;20415;-64
2023/02/03 14:28:38;;;;;;;7.00;3.92;;;;;;;9.00;65.84;100742.38;10427329;28;20055;-64
2023/02/03 14:34:07;;;;;;;5.97;3.90;;;;;;;9.05;66.00;100754.34;10431566;28;20071;-64
2023/02/03 14:39:39;;;;;;;6.18;3.40;;;;;;;9.06;65.75;100726.47;10423432;28;20093;-63
2023/02/03 14:44:51;;;;;;;8.30;3.60;;;;;;;9.22;65.56;100714.50;10423839;28;20041;-64
2023/02/03 14:50:19;;;;;;;7.38;3.60;;;;;;;9.29;65.30;100729.84;10429239;28;20045;-64
2023/02/03 14:55:41;;;;;;;6.05;3.13;;;;;;;9.09;65.11;100737.63;10423796;28;20041;-64
2023/02/03 15:00:42;;;;;;;6.95;3.20;;;;;;;9.25;65.00;100749.16;10423094;28;20144;-64
2023/02/03 15:05:47;;;;;;;5.30;3.15;;;;;;;9.34;64.73;100747.91;10422028;28;20051;-64
2023/02/03 15:10:48;;;;;;;5.47;3.22;;;;;;;9.30;64.77;100757.63;10421789;28;20045;-64
2023/02/03 15:15:52;;;;;;;5.35;3.30;;;;;;;9.20;64.87;100761.53;10425401;28;20056;-64
2023/02/03 15:20:55;;;;;;;6.50;3.90;;;;;;;9.08;65.12;100746.38;10429223;28;20064;-64
2023/02/03 15:25:59;;;;;;;6.50;3.33;;;;;;;9.07;65.18;100754.25;10425742;28;20056;-64
2023/02/03 15:31:15;;;;;;;7.93;3.75;;;;;;;8.98;65.67;100768.53;10430621;28;20052;-63
2023/02/03 15:36:26;;;;;;;8.65;3.70;;;;;;;8.93;65.42;100775.69;10426372;28;20048;-64
2023/02/03 15:41:28;;;;;;;6.13;3.97;;;;;;;9.03;65.18;100794.44;10416749;28;20049;-64
2023/02/03 15:46:29;;;;;;;6.30;3.45;;;;;;;9.09;65.29;100804.63;10423985;28;20049;-64
2023/02/03 15:51:40;;;;;;;8.13;4.40;;;;;;;9.08;65.47;100826.41;10428395;28;20500;-64
2023/02/03 15:56:47;;;;;;;9.30;4.40;;;;;;;9.03;65.53;100816.16;10424342;28;20052;-64
2023/02/03 16:01:50;;;;;;;7.95;4.18;;;;;;;8.93;66.00;100817.44;10427700;28;20394;-64
2023/02/03 16:06:55;;;;;;;7.80;4.60;;;;;;;9.03;66.02;100825.75;10423700;28;20485;-63
2023/02/03 16:12:05;;;;;;;7.00;4.07;;;;;;;8.88;66.09;100823.72;10427684;28;20053;-64
2023/02/03 16:17:31;;;;;;;6.72;3.63;;;;;;;8.84;66.16;100830.81;10415696;28;20876;-64
2023/02/03 16:22:40;;;;;;;7.40;3.95;;;;;;;8.86;65.70;100826.41;10426205;28;20486;-64
2023/02/03 16:54:39;;;;;;;9.30;4.05;;;;;;;8.91;64.93;100836.66;10418569;28;20055;-66
2023/02/03 16:59:41;;;;;;;8.52;3.90;;;;;;;8.92;64.42;100830.50;10419916;28;20057;-66
2023/02/03 17:04:43;;;;;;;8.75;3.55;;;;;;;8.99;64.42;100845.91;10421776;28;20044;-67
2023/02/03 17:09:45;;;;;;;8.85;3.92;;;;;;;8.85;64.39;100856.84;10420789;28;20090;-65
2023/02/03 17:14:47;;;;;;;10.90;4.65;;;;;;;8.91;64.40;100874.03;10419103;28;20052;-66
2023/02/03 17:19:49;;;;;;;9.15;4.78;;;;;;;8.81;65.06;100880.50;10422655;28;20053;-66
2023/02/03 17:24:50;;;;;;;10.88;4.97;;;;;;;8.66;65.80;100901.94;10418964;28;20864;-66
2023/02/03 17:29:52;;;;;;;13.85;6.13;;;;;;;8.62;66.81;100897.72;10419166;28;20037;-66
2023/02/03 17:34:54;;;;;;;15.23;4.93;;;;;;;8.31;66.62;100931.00;10423064;28;20057;-66
2023/02/03 17:39:56;;;;;;;17.35;4.57;;;;;;;8.16;66.50;100924.56;10425344;28;20049;-67
2023/02/03 17:45:16;;;;;;;18.13;4.82;;;;;;;8.22;65.79;100931.34;10421956;28;20485;-67
2023/02/03 17:50:36;;;;;;;;;;;;;;;7.76;66.31;100956.25;10424913;28;20048;-66
2023/02/03 17:55:55;;;;;;;15.15;4.22;;;;;;;7.91;65.70;100963.59;10421698;28;20230;-66
2023/02/03 18:00:57;;;;;;;16.95;4.15;;;;;;;8.13;65.21;100968.09;10421388;28;20045;-67
2023/02/03 18:06:01;;;;;;;25.67;4.95;;;;;;;8.19;64.49;100960.94;10421604;28;20053;-66
2023/02/03 18:11:04;;;;;;;19.50;4.50;;;;;;;8.09;64.87;100969.09;10421833;28;20041;-67
2023/02/03 18:16:09;;;;;;;23.63;4.88;;;;;;;8.12;64.75;100963.81;10418269;28;20115;-66
2023/02/03 18:21:12;;;;;;;18.23;4.28;;;;;;;8.14;64.28;100981.06;10422499;28;20056;-66
2023/02/03 18:26:14;;;;;;;17.08;4.32;;;;;;;8.11;64.52;100973.38;10416296;28;20045;-67
2023/02/03 18:31:16;;;;;;;19.38;4.75;;;;;;;8.18;64.29;100985.28;10419767;28;20060;-67
2023/02/03 18:36:19;;;;;;;23.00;4.90;;;;;;;8.19;64.21;100993.97;10414899;28;20049;-66
2023/02/03 18:41:24;;;;;;;18.08;4.22;;;;;;;8.14;64.30;100993.28;10420041;28;20405;-66
2023/02/03 18:46:28;;;;;;;19.60;4.32;;;;;;;8.18;64.08;100987.06;10419200;28;20057;-67
2023/02/03 18:51:31;;;;;;;17.65;3.92;;;;;;;8.10;63.93;100995.09;10421404;28;20949;-67
2023/02/03 18:56:36;;;;;;;22.70;4.50;;;;;;;8.01;63.77;100998.84;10420409;28;20053;-66
2023/02/03 19:01:38;;;;;;;15.52;3.92;;;;;;;8.14;63.49;101001.09;10420266;28;20453;-67
2023/02/03 19:06:44;;;;;;;17.98;4.10;;;;;;;8.04;63.55;101016.97;10418466;28;20064;-66
2023/02/03 19:11:46;;;;;;;22.05;4.70;;;;;;;8.01;63.44;101024.03;10422718;28;20049;-67
2023/02/03 19:16:50;;;;;;;18.42;4.05;;;;;;;8.13;63.23;101028.03;10425201;28;20980;-67
2023/02/03 19:21:52;;;;;;;23.88;4.88;;;;;;;8.13;62.60;101039.31;10427351;28;20057;-67
2023/02/03 19:26:54;;;;;;;20.70;4.25;;;;;;;8.15;62.57;101047.94;10423808;28;20064;-66
2023/02/03 19:31:56;;;;;;;19.00;4.30;;;;;;;8.13;62.50;101046.28;10424706;28;20052;-67
2023/02/03 19:36:57;;;;;;;19.70;4.97;;;;;;;8.07;62.52;101033.41;10413499;28;20363;-67
2023/02/03 19:42:02;;;;;;;23.27;5.38;;;;;;;8.03;62.22;101027.47;10423260;28;20059;-65
2023/02/03 19:47:04;;;;;;;23.75;5.03;;;;;;;7.98;62.19;101037.16;10412875;28;20485;-67
2023/02/03 19:52:07;;;;;;;20.02;4.57;;;;;;;7.91;61.94;101048.69;10426720;28;20051;-67
2023/02/03 19:57:09;;;;;;;20.17;4.30;;;;;;;7.92;61.50;101050.38;10429679;28;20163;-66
2023/02/03 20:02:13;;;;;;;15.70;3.97;;;;;;;7.91;61.07;101051.28;10431391;28;20154;-67
2023/02/03 20:07:15;;;;;;;19.55;4.70;;;;;;;7.95;60.58;101055.50;10428525;28;20078;-67
2023/02/03 20:12:17;;;;;;;27.98;5.07;;;;;;;7.97;60.14;101064.97;10426144;28;20571;-67
2023/02/03 20:17:19;;;;;;;24.52;5.22;;;;;;;7.92;60.12;101069.47;10422569;28;21237;-66
2023/02/03 20:22:21;;;;;;;25.35;4.53;;;;;;;7.75;60.06;101071.72;10425853;28;20064;-67
2023/02/03 20:27:22;;;;;;;25.63;4.70;;;;;;;7.68;59.74;101071.97;10422229;28;20048;-66
2023/02/03 20:32:24;;;;;;;30.10;5.28;;;;;;;7.79;60.05;101081.13;10403100;28;20059;-67
2023/02/03 20:37:26;;;;;;;25.70;5.32;;;;;;;7.84;59.84;101087.06;10424225;28;20055;-67
2023/02/03 20:42:28;;;;;;;26.38;4.78;;;;;;;7.78;60.17;101095.06;10420512;28;20045;-67
2023/02/03 20:47:32;;;;;;;25.70;5.55;;;;;;;7.83;60.04;101090.56;10420935;28;20128;-66
2023/02/03 20:52:34;;;;;;;29.25;4.93;;;;;;;7.95;59.83;101105.00;10419636;28;20152;-66
2023/02/03 20:57:35;;;;;;;20.38;4.65;;;;;;;7.98;60.11;101103.13;10420548;28;20056;-66
2023/02/03 21:07:58;;;;;;;21.07;4.70;;;;;;;8.00;60.05;101116.09;10419335;28;20052;-66
2023/02/03 21:13:01;;;;;;;24.52;5.43;;;;;;;8.02;59.71;101109.97;10425727;28;20049;-67
2023/02/03 21:18:34;;;;;;;26.30;5.50;;;;;;;7.97;59.68;101116.22;10420856;28;20045;-66
2023/02/03 21:23:41;;;;;;;19.88;5.28;;;;;;;8.00;59.67;101116.97;10420987;28;20163;-66
2023/02/03 21:28:43;;;;;;;23.05;5.00;;;;;;;7.79;59.96;101115.00;10416817;28;20438;-66
2023/02/03 21:33:45;;;;;;;26.77;5.97;;;;;;;7.92;59.96;101121.56;10417162;28;20409;-66
2023/02/03 21:38:54;;;;;;;23.30;5.40;;;;;;;7.94;59.17;101122.38;10418158;28;20634;-66
2023/02/03 21:43:59;;;;;;;21.00;4.95;;;;;;;7.92;59.33;101129.38;10416017;28;20056;-66
2023/02/03 21:49:02;;;;;;;22.52;5.60;;;;;;;7.92;59.35;101123.31;10412649;28;20040;-66
2023/02/03 21:54:29;;;;;;;21.27;4.75;;;;;;;7.83;58.58;101129.63;10417204;28;20045;-66
2023/02/03 21:59:37;;;;;;;22.17;4.53;;;;;;;7.82;59.01;101146.16;10416028;28;20061;-66
2023/02/03 22:04:39;;;;;;;18.00;5.20;;;;;;;7.89;59.03;101133.81;10413948;28;20052;-66
2023/02/03 22:09:41;;;;;;;18.70;4.82;;;;;;;7.95;59.04;101141.47;10415706;28;20123;-66
2023/02/03 22:14:43;;;;;;;15.45;4.80;;;;;;;7.81;59.18;101136.63;10416919;28;20041;-66
2023/02/03 22:19:45;;;;;;;20.10;4.80;;;;;;;7.82;58.48;101140.97;10413811;28;20072;-66
2023/02/03 22:24:47;;;;;;;19.58;5.35;;;;;;;7.62;59.05;101145.91;10415322;28;20740;-66
2023/02/03 22:29:48;;;;;;;22.02;5.32;;;;;;;7.64;59.30;101164.06;10415038;28;20048;-65
2023/02/03 22:34:50;;;;;;;19.08;4.63;;;;;;;7.53;58.82;101172.16;10407804;28;20051;-66
2023/02/03 22:39:52;;;;;;;21.23;5.18;;;;;;;7.77;58.73;101191.47;10415335;28;20055;-65
2023/02/03 22:44:53;;;;;;;18.65;4.55;;;;;;;7.85;58.56;101203.38;10417569;28;20045;-66
2023/02/03 22:49:55;;;;;;;21.45;5.50;;;;;;;7.77;58.31;101207.94;10417702;28;20041;-66
2023/02/03 22:54:57;;;;;;;18.17;4.60;;;;;;;7.83;58.50;101202.56;10421369;28;20049;-66
2023/02/03 22:59:58;;;;;;;19.13;4.85;;;;;;;7.66;58.43;101214.34;10421508;28;20056;-66
2023/02/03 23:05:00;;;;;;;18.13;4.80;;;;;;;7.71;58.04;101210.72;10419566;28;20163;-66
2023/02/03 23:10:03;;;;;;;18.10;4.35;;;;;;;7.73;58.09;101202.88;10422743;28;20044;-66
2023/02/03 23:15:05;;;;;;;21.92;4.93;;;;;;;7.82;58.03;101228.66;10420066;28;20047;-66
2023/02/03 23:20:08;;;;;;;14.88;4.20;;;;;;;7.80;57.99;101225.22;10421599;28;20064;-66
2023/02/03 23:25:10;;;;;;;14.18;3.95;;;;;;;7.74;57.99;101230.63;10420449;28;20420;-66
2023/02/03 23:30:13;;;;;;;18.33;4.70;;;;;;;7.65;57.93;101223.91;10401595;28;20442;-65
2023/02/03 23:40:35;;;;;;;15.50;4.50;;;;;;;7.54;58.01;101252.00;10422285;28;20424;-66
2023/02/03 23:45:37;;;;;;;20.35;4.38;;;;;;;7.60;57.63;101254.44;10420177;28;20413;-66
2023/02/03 23:50:38;;;;;;;18.55;4.28;;;;;;;7.48;57.23;101259.97;10417776;28;20044;-66
2023/02/03 23:55:40;;;;;;;20.92;4.50;;;;;;;7.58;57.56;101266.63;10413901;28;20061;-66
